sensor_id;sensor_type;location;lat;lon;timestamp;temperature;humidity
3492;DHT22;1760;52.480;13.422;2024-03-17T00:01:00;6.20;99.90
3492;DHT22;1760;52.480;13.422;2024-03-17T00:03:27;6.20;99.90
3492;DHT22;1760;52.480;13.422;2024-03-17T00:05:57;6.10;99.90
3492;DHT22;1760;52.480;13.422;2024-03-17T00:08:26;6.00;99.90
3492;DHT22;1760;52.480;13.422;2024-03-17T00:10:52;6.10;99.90
3492;DHT22;1760;52.480;13.422;2024-03-17T00:13:20;6.10;99.90
3492;DHT22;1760;52.480;13.422;2024-03-17T00:15:47;6.10;99.90
3492;DHT22;1760;52.480;13.422;2024-03-17T00:18:14;6.20;99.90
3492;DHT22;1760;52.480;13.422;2024-03-17T00:20:40;6.10;99.90
3492;DHT22;1760;52.480;13.422;2024-03-17T00:23:09;6.10;99.90
3492;DHT22;1760;52.480;13.422;2024-03-17T00:25:37;6.10;99.90
3492;DHT22;1760;52.480;13.422;2024-03-17T00:28:05;6.20;99.90
3492;DHT22;1760;52.480;13.422;2024-03-17T00:30:34;6.10;99.90
3492;DHT22;1760;52.480;13.422;2024-03-17T00:33:02;6.00;99.90
3492;DHT22;1760;52.480;13.422;2024-03-17T00:35:29;6.00;99.90
3492;DHT22;1760;52.480;13.422;2024-03-17T00:37:56;6.00;99.90
3492;DHT22;1760;52.480;13.422;2024-03-17T00:40:23;5.90;99.90
3492;DHT22;1760;52.480;13.422;2024-03-17T00:42:50;5.90;99.90
3492;DHT22;1760;52.480;13.422;2024-03-17T00:45:16;5.80;99.90
3492;DHT22;1760;52.480;13.422;2024-03-17T00:47:43;5.80;99.90
3492;DHT22;1760;52.480;13.422;2024-03-17T00:50:10;5.80;99.90
3492;DHT22;1760;52.480;13.422;2024-03-17T00:52:37;5.80;99.90
3492;DHT22;1760;52.480;13.422;2024-03-17T00:55:03;5.80;99.90
3492;DHT22;1760;52.480;13.422;2024-03-17T00:57:32;5.80;99.90
3492;DHT22;1760;52.480;13.422;2024-03-17T00:59:58;5.80;99.90
3492;DHT22;1760;52.480;13.422;2024-03-17T01:02:25;5.70;99.90
3492;DHT22;1760;52.480;13.422;2024-03-17T01:04:51;5.80;99.90
3492;DHT22;1760;52.480;13.422;2024-03-17T01:07:18;5.70;99.90
3492;DHT22;1760;52.480;13.422;2024-03-17T01:09:44;5.70;99.90
3492;DHT22;1760;52.480;13.422;2024-03-17T01:12:13;5.70;99.90
3492;DHT22;1760;52.480;13.422;2024-03-17T01:14:40;5.70;99.90
3492;DHT22;1760;52.480;13.422;2024-03-17T01:17:07;5.70;99.90
3492;DHT22;1760;52.480;13.422;2024-03-17T01:19:34;5.70;99.90
3492;DHT22;1760;52.480;13.422;2024-03-17T01:22:01;5.70;99.90
3492;DHT22;1760;52.480;13.422;2024-03-17T01:24:27;5.70;99.90
3492;DHT22;1760;52.480;13.422;2024-03-17T01:26:57;5.70;99.90
3492;DHT22;1760;52.480;13.422;2024-03-17T01:29:23;5.60;99.90
3492;DHT22;1760;52.480;13.422;2024-03-17T01:31:51;5.70;99.90
3492;DHT22;1760;52.480;13.422;2024-03-17T01:34:18;5.70;99.90
3492;DHT22;1760;52.480;13.422;2024-03-17T01:36:45;5.70;99.90
3492;DHT22;1760;52.480;13.422;2024-03-17T01:39:11;5.70;99.90
3492;DHT22;1760;52.480;13.422;2024-03-17T01:41:39;5.70;99.90
3492;DHT22;1760;52.480;13.422;2024-03-17T01:44:05;5.70;99.90
3492;DHT22;1760;52.480;13.422;2024-03-17T01:46:33;5.70;99.90
3492;DHT22;1760;52.480;13.422;2024-03-17T01:49:00;5.70;99.90
3492;DHT22;1760;52.480;13.422;2024-03-17T01:51:30;5.70;99.90
3492;DHT22;1760;52.480;13.422;2024-03-17T01:53:56;5.50;99.90
3492;DHT22;1760;52.480;13.422;2024-03-17T01:56:23;5.60;99.90
3492;DHT22;1760;52.480;13.422;2024-03-17T01:58:49;5.50;99.90
3492;DHT22;1760;52.480;13.422;2024-03-17T02:01:17;5.50;99.90
3492;DHT22;1760;52.480;13.422;2024-03-17T02:03:42;5.50;99.90
3492;DHT22;1760;52.480;13.422;2024-03-17T02:06:11;5.50;99.90
3492;DHT22;1760;52.480;13.422;2024-03-17T02:08:49;5.30;99.90
3492;DHT22;1760;52.480;13.422;2024-03-17T02:11:25;5.30;99.90
3492;DHT22;1760;52.480;13.422;2024-03-17T02:13:52;5.20;99.90
3492;DHT22;1760;52.480;13.422;2024-03-17T02:16:19;5.20;99.90
3492;DHT22;1760;52.480;13.422;2024-03-17T02:18:46;5.10;99.90
3492;DHT22;1760;52.480;13.422;2024-03-17T02:21:14;5.10;99.90
3492;DHT22;1760;52.480;13.422;2024-03-17T02:23:43;5.00;99.90
3492;DHT22;1760;52.480;13.422;2024-03-17T02:26:10;4.90;99.90
3492;DHT22;1760;52.480;13.422;2024-03-17T02:28:40;4.90;99.90
3492;DHT22;1760;52.480;13.422;2024-03-17T02:31:09;4.90;99.90
3492;DHT22;1760;52.480;13.422;2024-03-17T02:33:35;4.90;99.90
3492;DHT22;1760;52.480;13.422;2024-03-17T02:36:05;5.00;99.90
3492;DHT22;1760;52.480;13.422;2024-03-17T02:38:33;5.00;99.90
3492;DHT22;1760;52.480;13.422;2024-03-17T02:41:19;5.00;99.90
3492;DHT22;1760;52.480;13.422;2024-03-17T02:43:46;5.00;99.90
3492;DHT22;1760;52.480;13.422;2024-03-17T02:46:14;5.00;99.90
3492;DHT22;1760;52.480;13.422;2024-03-17T02:48:41;5.00;99.90
3492;DHT22;1760;52.480;13.422;2024-03-17T02:51:11;4.90;99.90
3492;DHT22;1760;52.480;13.422;2024-03-17T02:53:40;4.90;99.90
3492;DHT22;1760;52.480;13.422;2024-03-17T02:56:07;4.90;99.90
3492;DHT22;1760;52.480;13.422;2024-03-17T02:58:36;5.00;99.90
3492;DHT22;1760;52.480;13.422;2024-03-17T03:01:03;4.70;99.90
3492;DHT22;1760;52.480;13.422;2024-03-17T03:03:31;4.80;99.90
3492;DHT22;1760;52.480;13.422;2024-03-17T03:05:58;4.80;99.90
3492;DHT22;1760;52.480;13.422;2024-03-17T03:08:26;4.80;99.90
3492;DHT22;1760;52.480;13.422;2024-03-17T03:10:53;4.70;99.90
3492;DHT22;1760;52.480;13.422;2024-03-17T03:13:20;4.80;99.90
3492;DHT22;1760;52.480;13.422;2024-03-17T03:15:49;4.70;99.90
3492;DHT22;1760;52.480;13.422;2024-03-17T03:18:16;4.60;99.90
3492;DHT22;1760;52.480;13.422;2024-03-17T03:20:50;4.70;99.90
3492;DHT22;1760;52.480;13.422;2024-03-17T03:23:17;4.60;99.90
3492;DHT22;1760;52.480;13.422;2024-03-17T03:25:44;4.60;99.90
3492;DHT22;1760;52.480;13.422;2024-03-17T03:28:11;4.50;99.90
3492;DHT22;1760;52.480;13.422;2024-03-17T03:30:38;4.50;99.90
3492;DHT22;1760;52.480;13.422;2024-03-17T03:33:06;4.40;99.90
3492;DHT22;1760;52.480;13.422;2024-03-17T03:35:33;4.40;99.90
3492;DHT22;1760;52.480;13.422;2024-03-17T03:38:00;4.50;99.90
3492;DHT22;1760;52.480;13.422;2024-03-17T03:40:28;4.50;99.90
3492;DHT22;1760;52.480;13.422;2024-03-17T03:42:55;4.50;99.90
3492;DHT22;1760;52.480;13.422;2024-03-17T03:45:22;4.50;99.90
3492;DHT22;1760;52.480;13.422;2024-03-17T03:47:50;4.50;99.90
3492;DHT22;1760;52.480;13.422;2024-03-17T03:50:20;4.50;99.90
3492;DHT22;1760;52.480;13.422;2024-03-17T03:52:47;4.40;99.90
3492;DHT22;1760;52.480;13.422;2024-03-17T03:55:16;4.40;99.90
3492;DHT22;1760;52.480;13.422;2024-03-17T03:57:43;4.40;99.90
3492;DHT22;1760;52.480;13.422;2024-03-17T04:00:13;4.40;99.90
3492;DHT22;1760;52.480;13.422;2024-03-17T04:02:41;4.40;99.90
3492;DHT22;1760;52.480;13.422;2024-03-17T04:05:08;4.50;99.90
3492;DHT22;1760;52.480;13.422;2024-03-17T04:07:37;4.40;99.90
3492;DHT22;1760;52.480;13.422;2024-03-17T04:10:06;4.40;99.90
3492;DHT22;1760;52.480;13.422;2024-03-17T04:12:33;4.40;99.90
3492;DHT22;1760;52.480;13.422;2024-03-17T04:15:00;4.40;99.90
3492;DHT22;1760;52.480;13.422;2024-03-17T04:17:27;4.40;99.90
3492;DHT22;1760;52.480;13.422;2024-03-17T04:19:55;4.30;99.90
3492;DHT22;1760;52.480;13.422;2024-03-17T04:22:22;4.40;99.90
3492;DHT22;1760;52.480;13.422;2024-03-17T04:24:51;4.30;99.90
3492;DHT22;1760;52.480;13.422;2024-03-17T04:27:19;4.20;99.90
3492;DHT22;1760;52.480;13.422;2024-03-17T04:29:47;4.20;99.90
3492;DHT22;1760;52.480;13.422;2024-03-17T04:32:13;4.30;99.90
3492;DHT22;1760;52.480;13.422;2024-03-17T04:34:41;4.20;99.90
3492;DHT22;1760;52.480;13.422;2024-03-17T04:37:09;4.20;99.90
3492;DHT22;1760;52.480;13.422;2024-03-17T04:39:37;4.80;99.90
3492;DHT22;1760;52.480;13.422;2024-03-17T04:42:06;4.70;99.90
3492;DHT22;1760;52.480;13.422;2024-03-17T04:44:32;4.30;99.90
3492;DHT22;1760;52.480;13.422;2024-03-17T04:46:59;4.30;99.90
3492;DHT22;1760;52.480;13.422;2024-03-17T04:49:26;4.30;99.90
3492;DHT22;1760;52.480;13.422;2024-03-17T04:51:53;4.30;99.90
3492;DHT22;1760;52.480;13.422;2024-03-17T04:54:20;4.30;99.90
3492;DHT22;1760;52.480;13.422;2024-03-17T04:56:52;4.30;99.90
3492;DHT22;1760;52.480;13.422;2024-03-17T04:59:21;4.40;99.90
3492;DHT22;1760;52.480;13.422;2024-03-17T05:01:48;4.40;99.90
3492;DHT22;1760;52.480;13.422;2024-03-17T05:04:15;4.40;99.90
3492;DHT22;1760;52.480;13.422;2024-03-17T05:06:42;4.30;99.90
3492;DHT22;1760;52.480;13.422;2024-03-17T05:09:11;4.30;99.90
3492;DHT22;1760;52.480;13.422;2024-03-17T05:11:39;4.40;99.90
3492;DHT22;1760;52.480;13.422;2024-03-17T05:14:07;4.40;99.90
3492;DHT22;1760;52.480;13.422;2024-03-17T05:16:35;4.40;99.90
3492;DHT22;1760;52.480;13.422;2024-03-17T05:19:04;4.30;99.90
3492;DHT22;1760;52.480;13.422;2024-03-17T05:21:34;4.30;99.90
3492;DHT22;1760;52.480;13.422;2024-03-17T05:24:02;4.30;99.90
3492;DHT22;1760;52.480;13.422;2024-03-17T05:26:29;4.40;99.90
3492;DHT22;1760;52.480;13.422;2024-03-17T05:28:58;4.40;99.90
3492;DHT22;1760;52.480;13.422;2024-03-17T05:31:28;4.40;99.90
3492;DHT22;1760;52.480;13.422;2024-03-17T05:33:58;4.30;99.90
3492;DHT22;1760;52.480;13.422;2024-03-17T05:36:25;4.40;99.90
3492;DHT22;1760;52.480;13.422;2024-03-17T05:38:52;4.40;99.90
3492;DHT22;1760;52.480;13.422;2024-03-17T05:41:21;4.60;99.90
3492;DHT22;1760;52.480;13.422;2024-03-17T05:43:50;4.30;99.90
3492;DHT22;1760;52.480;13.422;2024-03-17T05:46:17;4.30;99.90
3492;DHT22;1760;52.480;13.422;2024-03-17T05:48:44;4.30;99.90
3492;DHT22;1760;52.480;13.422;2024-03-17T05:51:12;4.30;99.90
3492;DHT22;1760;52.480;13.422;2024-03-17T05:53:41;4.30;99.90
3492;DHT22;1760;52.480;13.422;2024-03-17T05:56:10;4.30;99.90
3492;DHT22;1760;52.480;13.422;2024-03-17T05:58:38;4.30;99.90
3492;DHT22;1760;52.480;13.422;2024-03-17T06:01:05;4.30;99.90
3492;DHT22;1760;52.480;13.422;2024-03-17T06:03:33;4.40;99.90
3492;DHT22;1760;52.480;13.422;2024-03-17T06:06:01;4.50;99.90
3492;DHT22;1760;52.480;13.422;2024-03-17T06:08:30;4.40;99.90
3492;DHT22;1760;52.480;13.422;2024-03-17T06:10:57;4.40;99.90
3492;DHT22;1760;52.480;13.422;2024-03-17T06:13:25;4.40;99.90
3492;DHT22;1760;52.480;13.422;2024-03-17T06:15:53;4.40;99.90
3492;DHT22;1760;52.480;13.422;2024-03-17T06:18:20;4.30;99.90
3492;DHT22;1760;52.480;13.422;2024-03-17T06:20:49;4.30;99.90
3492;DHT22;1760;52.480;13.422;2024-03-17T06:23:16;4.30;99.90
3492;DHT22;1760;52.480;13.422;2024-03-17T06:25:45;4.30;99.90
3492;DHT22;1760;52.480;13.422;2024-03-17T06:28:14;4.40;99.90
3492;DHT22;1760;52.480;13.422;2024-03-17T06:30:41;4.60;99.90
3492;DHT22;1760;52.480;13.422;2024-03-17T06:33:11;4.60;99.90
3492;DHT22;1760;52.480;13.422;2024-03-17T06:35:38;4.70;99.90
3492;DHT22;1760;52.480;13.422;2024-03-17T06:38:06;4.80;99.90
3492;DHT22;1760;52.480;13.422;2024-03-17T06:40:38;4.80;99.90
3492;DHT22;1760;52.480;13.422;2024-03-17T06:43:06;4.90;99.90
3492;DHT22;1760;52.480;13.422;2024-03-17T06:45:36;4.90;99.90
3492;DHT22;1760;52.480;13.422;2024-03-17T06:48:03;5.00;99.90
3492;DHT22;1760;52.480;13.422;2024-03-17T06:50:37;5.00;99.90
3492;DHT22;1760;52.480;13.422;2024-03-17T06:53:06;5.10;99.90
3492;DHT22;1760;52.480;13.422;2024-03-17T06:55:34;5.20;99.90
3492;DHT22;1760;52.480;13.422;2024-03-17T06:58:01;5.20;99.90
3492;DHT22;1760;52.480;13.422;2024-03-17T07:00:32;5.40;99.90
3492;DHT22;1760;52.480;13.422;2024-03-17T07:02:59;5.40;99.90
3492;DHT22;1760;52.480;13.422;2024-03-17T07:05:26;5.50;99.90
3492;DHT22;1760;52.480;13.422;2024-03-17T07:07:55;5.60;99.90
3492;DHT22;1760;52.480;13.422;2024-03-17T07:10:26;5.70;99.90
3492;DHT22;1760;52.480;13.422;2024-03-17T07:12:59;5.90;99.90
3492;DHT22;1760;52.480;13.422;2024-03-17T07:15:26;5.90;99.90
3492;DHT22;1760;52.480;13.422;2024-03-17T07:17:57;6.10;99.90
3492;DHT22;1760;52.480;13.422;2024-03-17T07:20:24;6.20;99.90
3492;DHT22;1760;52.480;13.422;2024-03-17T07:22:51;6.30;99.90
3492;DHT22;1760;52.480;13.422;2024-03-17T07:25:17;6.40;99.90
3492;DHT22;1760;52.480;13.422;2024-03-17T07:27:44;6.50;99.90
3492;DHT22;1760;52.480;13.422;2024-03-17T07:30:11;6.60;99.90
3492;DHT22;1760;52.480;13.422;2024-03-17T07:32:38;6.60;99.90
3492;DHT22;1760;52.480;13.422;2024-03-17T07:35:09;6.70;99.90
3492;DHT22;1760;52.480;13.422;2024-03-17T07:37:36;6.80;99.90
3492;DHT22;1760;52.480;13.422;2024-03-17T07:40:08;6.90;99.90
3492;DHT22;1760;52.480;13.422;2024-03-17T07:42:36;6.90;99.90
3492;DHT22;1760;52.480;13.422;2024-03-17T07:45:03;7.00;99.90
3492;DHT22;1760;52.480;13.422;2024-03-17T07:47:30;7.00;99.90
3492;DHT22;1760;52.480;13.422;2024-03-17T07:50:01;7.00;99.90
3492;DHT22;1760;52.480;13.422;2024-03-17T07:52:31;7.10;99.90
3492;DHT22;1760;52.480;13.422;2024-03-17T07:54:58;7.20;99.90
3492;DHT22;1760;52.480;13.422;2024-03-17T07:57:25;7.10;99.90
3492;DHT22;1760;52.480;13.422;2024-03-17T07:59:52;7.20;99.90
3492;DHT22;1760;52.480;13.422;2024-03-17T08:02:21;7.20;99.90
3492;DHT22;1760;52.480;13.422;2024-03-17T08:04:51;7.30;99.90
3492;DHT22;1760;52.480;13.422;2024-03-17T08:07:18;7.30;99.90
3492;DHT22;1760;52.480;13.422;2024-03-17T08:09:48;7.30;99.90
3492;DHT22;1760;52.480;13.422;2024-03-17T08:12:27;7.30;99.90
3492;DHT22;1760;52.480;13.422;2024-03-17T08:14:58;7.40;99.90
3492;DHT22;1760;52.480;13.422;2024-03-17T08:17:26;7.50;99.90
3492;DHT22;1760;52.480;13.422;2024-03-17T08:19:56;7.70;99.90
3492;DHT22;1760;52.480;13.422;2024-03-17T08:22:23;7.80;99.90
3492;DHT22;1760;52.480;13.422;2024-03-17T08:24:52;7.80;99.90
3492;DHT22;1760;52.480;13.422;2024-03-17T08:27:19;7.70;99.90
3492;DHT22;1760;52.480;13.422;2024-03-17T08:29:46;7.70;99.90
3492;DHT22;1760;52.480;13.422;2024-03-17T08:32:13;7.70;99.90
3492;DHT22;1760;52.480;13.422;2024-03-17T08:34:41;7.80;99.90
3492;DHT22;1760;52.480;13.422;2024-03-17T08:37:08;8.00;99.90
3492;DHT22;1760;52.480;13.422;2024-03-17T08:39:35;8.50;99.90
3492;DHT22;1760;52.480;13.422;2024-03-17T08:42:03;9.40;99.90
3492;DHT22;1760;52.480;13.422;2024-03-17T08:44:30;10.50;99.90
3492;DHT22;1760;52.480;13.422;2024-03-17T08:47:00;11.60;99.90
3492;DHT22;1760;52.480;13.422;2024-03-17T08:49:27;11.90;99.90
3492;DHT22;1760;52.480;13.422;2024-03-17T08:51:54;12.30;99.90
3492;DHT22;1760;52.480;13.422;2024-03-17T08:54:21;12.20;99.90
3492;DHT22;1760;52.480;13.422;2024-03-17T08:56:47;11.70;99.90
3492;DHT22;1760;52.480;13.422;2024-03-17T08:59:16;11.80;99.90
3492;DHT22;1760;52.480;13.422;2024-03-17T09:01:43;11.80;99.90
3492;DHT22;1760;52.480;13.422;2024-03-17T09:04:10;12.10;99.90
3492;DHT22;1760;52.480;13.422;2024-03-17T09:06:38;12.00;99.90
3492;DHT22;1760;52.480;13.422;2024-03-17T09:09:06;12.10;99.90
3492;DHT22;1760;52.480;13.422;2024-03-17T09:11:33;11.70;99.90
3492;DHT22;1760;52.480;13.422;2024-03-17T09:14:00;11.30;99.90
3492;DHT22;1760;52.480;13.422;2024-03-17T09:16:29;11.00;99.90
3492;DHT22;1760;52.480;13.422;2024-03-17T09:18:57;10.60;99.90
3492;DHT22;1760;52.480;13.422;2024-03-17T09:21:24;10.00;99.90
3492;DHT22;1760;52.480;13.422;2024-03-17T09:23:51;9.80;99.90
3492;DHT22;1760;52.480;13.422;2024-03-17T09:26:18;9.90;99.90
3492;DHT22;1760;52.480;13.422;2024-03-17T09:28:45;10.30;99.90
3492;DHT22;1760;52.480;13.422;2024-03-17T09:31:12;10.80;99.90
3492;DHT22;1760;52.480;13.422;2024-03-17T09:33:40;11.40;99.90
3492;DHT22;1760;52.480;13.422;2024-03-17T09:36:08;11.60;99.90
3492;DHT22;1760;52.480;13.422;2024-03-17T09:38:37;11.60;99.90
3492;DHT22;1760;52.480;13.422;2024-03-17T09:41:05;11.50;99.90
3492;DHT22;1760;52.480;13.422;2024-03-17T09:43:33;11.30;99.50
3492;DHT22;1760;52.480;13.422;2024-03-17T09:46:02;10.90;99.50
3492;DHT22;1760;52.480;13.422;2024-03-17T09:48:29;10.60;99.90
3492;DHT22;1760;52.480;13.422;2024-03-17T09:51:01;10.80;99.90
3492;DHT22;1760;52.480;13.422;2024-03-17T09:53:29;11.90;99.90
3492;DHT22;1760;52.480;13.422;2024-03-17T09:55:59;13.40;98.50
3492;DHT22;1760;52.480;13.422;2024-03-17T09:58:26;14.90;95.00
3492;DHT22;1760;52.480;13.422;2024-03-17T10:00:53;15.70;90.10
3492;DHT22;1760;52.480;13.422;2024-03-17T10:03:39;16.20;82.20
3492;DHT22;1760;52.480;13.422;2024-03-17T10:06:08;16.90;78.70
3492;DHT22;1760;52.480;13.422;2024-03-17T10:08:44;17.40;72.90
3492;DHT22;1760;52.480;13.422;2024-03-17T10:11:12;17.80;69.60
3492;DHT22;1760;52.480;13.422;2024-03-17T10:13:41;18.10;65.70
3492;DHT22;1760;52.480;13.422;2024-03-17T10:16:22;18.60;68.00
3492;DHT22;1760;52.480;13.422;2024-03-17T10:18:49;19.30;62.00
3492;DHT22;1760;52.480;13.422;2024-03-17T10:21:27;19.20;59.90
3492;DHT22;1760;52.480;13.422;2024-03-17T10:24:08;18.80;58.30
3492;DHT22;1760;52.480;13.422;2024-03-17T10:26:42;17.60;57.70
3492;DHT22;1760;52.480;13.422;2024-03-17T10:29:23;16.10;59.20
3492;DHT22;1760;52.480;13.422;2024-03-17T10:31:52;15.00;62.50
3492;DHT22;1760;52.480;13.422;2024-03-17T10:34:20;14.40;66.80
3492;DHT22;1760;52.480;13.422;2024-03-17T10:36:51;13.90;67.60
3492;DHT22;1760;52.480;13.422;2024-03-17T10:39:25;13.40;69.30
3492;DHT22;1760;52.480;13.422;2024-03-17T10:41:59;13.00;72.50
3492;DHT22;1760;52.480;13.422;2024-03-17T10:44:30;13.60;70.90
3492;DHT22;1760;52.480;13.422;2024-03-17T10:46:59;14.30;68.20
3492;DHT22;1760;52.480;13.422;2024-03-17T10:49:29;14.90;66.40
3492;DHT22;1760;52.480;13.422;2024-03-17T10:52:01;14.70;66.90
3492;DHT22;1760;52.480;13.422;2024-03-17T10:54:30;14.50;66.50
3492;DHT22;1760;52.480;13.422;2024-03-17T10:57:03;13.60;67.40
3492;DHT22;1760;52.480;13.422;2024-03-17T10:59:38;12.90;69.80
3492;DHT22;1760;52.480;13.422;2024-03-17T11:02:20;12.30;71.90
3492;DHT22;1760;52.480;13.422;2024-03-17T11:04:49;11.60;73.40
3492;DHT22;1760;52.480;13.422;2024-03-17T11:07:18;11.50;77.10
3492;DHT22;1760;52.480;13.422;2024-03-17T11:09:46;12.10;80.50
3492;DHT22;1760;52.480;13.422;2024-03-17T11:12:43;12.50;76.60
3492;DHT22;1760;52.480;13.422;2024-03-17T11:15:36;12.70;74.50
3492;DHT22;1760;52.480;13.422;2024-03-17T11:18:36;13.00;75.10
3492;DHT22;1760;52.480;13.422;2024-03-17T11:21:06;13.10;74.40
3492;DHT22;1760;52.480;13.422;2024-03-17T11:23:38;13.00;73.60
3492;DHT22;1760;52.480;13.422;2024-03-17T11:26:06;12.60;74.60
3492;DHT22;1760;52.480;13.422;2024-03-17T11:28:48;12.30;73.80
3492;DHT22;1760;52.480;13.422;2024-03-17T11:31:47;12.20;73.80
3492;DHT22;1760;52.480;13.422;2024-03-17T11:34:31;12.30;76.80
3492;DHT22;1760;52.480;13.422;2024-03-17T11:36:58;12.40;74.00
3492;DHT22;1760;52.480;13.422;2024-03-17T11:39:55;12.00;72.90
3492;DHT22;1760;52.480;13.422;2024-03-17T11:42:22;11.80;74.60
3492;DHT22;1760;52.480;13.422;2024-03-17T11:44:57;11.90;76.10
3492;DHT22;1760;52.480;13.422;2024-03-17T11:47:32;11.90;77.50
3492;DHT22;1760;52.480;13.422;2024-03-17T11:50:02;11.90;77.70
3492;DHT22;1760;52.480;13.422;2024-03-17T11:52:28;11.90;78.30
3492;DHT22;1760;52.480;13.422;2024-03-17T11:54:56;11.70;76.10
3492;DHT22;1760;52.480;13.422;2024-03-17T11:57:24;11.70;78.00
3492;DHT22;1760;52.480;13.422;2024-03-17T11:59:52;11.70;76.50
3492;DHT22;1760;52.480;13.422;2024-03-17T12:02:20;11.60;76.70
3492;DHT22;1760;52.480;13.422;2024-03-17T12:04:48;11.50;78.40
3492;DHT22;1760;52.480;13.422;2024-03-17T12:07:18;11.40;78.60
3492;DHT22;1760;52.480;13.422;2024-03-17T12:09:46;11.40;79.30
3492;DHT22;1760;52.480;13.422;2024-03-17T12:12:19;11.70;79.50
3492;DHT22;1760;52.480;13.422;2024-03-17T12:14:47;11.80;76.10
3492;DHT22;1760;52.480;13.422;2024-03-17T12:17:14;11.70;74.70
3492;DHT22;1760;52.480;13.422;2024-03-17T12:19:45;11.60;72.30
3492;DHT22;1760;52.480;13.422;2024-03-17T12:22:20;11.40;72.00
3492;DHT22;1760;52.480;13.422;2024-03-17T12:24:48;11.50;74.20
3492;DHT22;1760;52.480;13.422;2024-03-17T12:27:20;11.40;74.30
3492;DHT22;1760;52.480;13.422;2024-03-17T12:29:48;11.50;75.00
3492;DHT22;1760;52.480;13.422;2024-03-17T12:32:16;11.70;73.50
3492;DHT22;1760;52.480;13.422;2024-03-17T12:34:43;11.50;73.30
3492;DHT22;1760;52.480;13.422;2024-03-17T12:37:17;11.40;73.60
3492;DHT22;1760;52.480;13.422;2024-03-17T12:39:46;11.30;74.70
3492;DHT22;1760;52.480;13.422;2024-03-17T12:42:13;11.40;75.70
3492;DHT22;1760;52.480;13.422;2024-03-17T12:44:49;11.50;74.30
3492;DHT22;1760;52.480;13.422;2024-03-17T12:47:17;11.70;73.80
3492;DHT22;1760;52.480;13.422;2024-03-17T12:49:45;11.80;73.20
3492;DHT22;1760;52.480;13.422;2024-03-17T12:52:18;11.90;72.60
3492;DHT22;1760;52.480;13.422;2024-03-17T12:54:45;11.70;72.20
3492;DHT22;1760;52.480;13.422;2024-03-17T12:57:41;11.60;72.50
3492;DHT22;1760;52.480;13.422;2024-03-17T13:00:27;11.60;73.30
3492;DHT22;1760;52.480;13.422;2024-03-17T13:03:00;11.70;72.40
3492;DHT22;1760;52.480;13.422;2024-03-17T13:05:28;11.80;72.60
3492;DHT22;1760;52.480;13.422;2024-03-17T13:07:55;12.00;74.20
3492;DHT22;1760;52.480;13.422;2024-03-17T13:10:24;12.20;72.20
3492;DHT22;1760;52.480;13.422;2024-03-17T13:13:03;12.30;72.00
3492;DHT22;1760;52.480;13.422;2024-03-17T13:15:32;12.40;69.90
3492;DHT22;1760;52.480;13.422;2024-03-17T13:18:01;12.40;70.00
3492;DHT22;1760;52.480;13.422;2024-03-17T13:20:32;12.40;70.10
3492;DHT22;1760;52.480;13.422;2024-03-17T13:22:59;12.60;70.40
3492;DHT22;1760;52.480;13.422;2024-03-17T13:25:27;12.70;69.00
3492;DHT22;1760;52.480;13.422;2024-03-17T13:27:59;12.50;69.70
3492;DHT22;1760;52.480;13.422;2024-03-17T13:30:27;12.40;69.50
3492;DHT22;1760;52.480;13.422;2024-03-17T13:32:56;12.30;69.80
3492;DHT22;1760;52.480;13.422;2024-03-17T13:35:26;12.00;70.70
3492;DHT22;1760;52.480;13.422;2024-03-17T13:37:57;11.80;70.70
3492;DHT22;1760;52.480;13.422;2024-03-17T13:40:25;11.70;71.10
3492;DHT22;1760;52.480;13.422;2024-03-17T13:42:55;11.50;71.70
3492;DHT22;1760;52.480;13.422;2024-03-17T13:45:24;11.40;72.40
3492;DHT22;1760;52.480;13.422;2024-03-17T13:47:57;11.40;72.30
3492;DHT22;1760;52.480;13.422;2024-03-17T13:50:25;11.40;72.20
3492;DHT22;1760;52.480;13.422;2024-03-17T13:52:52;11.30;74.10
3492;DHT22;1760;52.480;13.422;2024-03-17T13:55:22;11.50;74.10
3492;DHT22;1760;52.480;13.422;2024-03-17T13:57:50;11.60;73.60
3492;DHT22;1760;52.480;13.422;2024-03-17T14:00:20;11.80;73.90
3492;DHT22;1760;52.480;13.422;2024-03-17T14:02:49;12.10;73.30
3492;DHT22;1760;52.480;13.422;2024-03-17T14:05:18;12.10;72.60
3492;DHT22;1760;52.480;13.422;2024-03-17T14:07:46;12.30;72.30
3492;DHT22;1760;52.480;13.422;2024-03-17T14:10:16;12.20;70.60
3492;DHT22;1760;52.480;13.422;2024-03-17T14:12:43;12.00;71.90
3492;DHT22;1760;52.480;13.422;2024-03-17T14:15:12;12.10;70.10
3492;DHT22;1760;52.480;13.422;2024-03-17T14:17:40;12.10;69.90
3492;DHT22;1760;52.480;13.422;2024-03-17T14:20:10;12.20;70.10
3492;DHT22;1760;52.480;13.422;2024-03-17T14:22:41;12.30;70.30
3492;DHT22;1760;52.480;13.422;2024-03-17T14:25:09;12.40;70.10
3492;DHT22;1760;52.480;13.422;2024-03-17T14:27:37;12.40;69.30
3492;DHT22;1760;52.480;13.422;2024-03-17T14:30:05;12.50;70.10
3492;DHT22;1760;52.480;13.422;2024-03-17T14:32:33;12.60;69.10
3492;DHT22;1760;52.480;13.422;2024-03-17T14:34:59;12.50;68.90
3492;DHT22;1760;52.480;13.422;2024-03-17T14:37:26;12.40;69.70
3492;DHT22;1760;52.480;13.422;2024-03-17T14:39:55;12.30;69.70
3492;DHT22;1760;52.480;13.422;2024-03-17T14:42:22;12.10;68.80
3492;DHT22;1760;52.480;13.422;2024-03-17T14:44:50;11.90;68.70
3492;DHT22;1760;52.480;13.422;2024-03-17T14:47:17;11.80;69.10
3492;DHT22;1760;52.480;13.422;2024-03-17T14:49:44;11.80;70.20
3492;DHT22;1760;52.480;13.422;2024-03-17T14:52:11;11.70;70.90
3492;DHT22;1760;52.480;13.422;2024-03-17T14:54:38;11.70;72.40
3492;DHT22;1760;52.480;13.422;2024-03-17T14:57:07;11.70;73.30
3492;DHT22;1760;52.480;13.422;2024-03-17T14:59:35;11.70;73.70
3492;DHT22;1760;52.480;13.422;2024-03-17T15:02:03;11.60;73.10
3492;DHT22;1760;52.480;13.422;2024-03-17T15:04:31;11.50;73.80
3492;DHT22;1760;52.480;13.422;2024-03-17T15:06:58;11.40;73.40
3492;DHT22;1760;52.480;13.422;2024-03-17T15:09:25;11.20;74.90
3492;DHT22;1760;52.480;13.422;2024-03-17T15:11:52;11.00;73.50
3492;DHT22;1760;52.480;13.422;2024-03-17T15:14:20;10.80;73.30
3492;DHT22;1760;52.480;13.422;2024-03-17T15:16:47;10.60;74.70
3492;DHT22;1760;52.480;13.422;2024-03-17T15:19:14;10.60;76.30
3492;DHT22;1760;52.480;13.422;2024-03-17T15:21:41;10.50;76.00
3492;DHT22;1760;52.480;13.422;2024-03-17T15:24:08;10.50;75.90
3492;DHT22;1760;52.480;13.422;2024-03-17T15:26:35;10.40;74.90
3492;DHT22;1760;52.480;13.422;2024-03-17T15:29:02;10.50;74.90
3492;DHT22;1760;52.480;13.422;2024-03-17T15:31:31;10.60;74.60
3492;DHT22;1760;52.480;13.422;2024-03-17T15:33:58;10.60;75.20
3492;DHT22;1760;52.480;13.422;2024-03-17T15:36:25;10.60;75.50
3492;DHT22;1760;52.480;13.422;2024-03-17T15:38:52;10.70;75.70
3492;DHT22;1760;52.480;13.422;2024-03-17T15:41:22;10.70;75.40
3492;DHT22;1760;52.480;13.422;2024-03-17T15:43:49;10.70;75.40
3492;DHT22;1760;52.480;13.422;2024-03-17T15:46:18;10.70;75.80
3492;DHT22;1760;52.480;13.422;2024-03-17T15:48:49;10.60;75.30
3492;DHT22;1760;52.480;13.422;2024-03-17T15:51:17;10.40;75.50
3492;DHT22;1760;52.480;13.422;2024-03-17T15:53:46;10.30;75.90
3492;DHT22;1760;52.480;13.422;2024-03-17T15:56:13;10.30;76.10
3492;DHT22;1760;52.480;13.422;2024-03-17T15:58:41;10.40;76.40
3492;DHT22;1760;52.480;13.422;2024-03-17T16:01:08;10.30;76.40
3492;DHT22;1760;52.480;13.422;2024-03-17T16:03:38;10.30;77.20
3492;DHT22;1760;52.480;13.422;2024-03-17T16:06:16;10.30;76.50